Ocean Spirit of Moray — MVXF5 — position and weather

sailwx.info

Track history (hours):
 
Tides and Currents Weather Stations Pressure Air Temp Water Temp Dewpoint Dewpoint Depression Visibility Wind Speed Wind Dir Waves Ship Positions

Ocean Spirit of Moray (United Kingdom)

Ship's website: http://www.gordonstoun.org.uk/

Last reported at 2019-Jun-12 08:22 UTC. Time now 2019-Jun-16 00:45 UTC.
Position N 57°16' W 005°39'.

Length 24 m; draft 3 m.

Type: Sailing vessel. MMSI: 232007590.

Date/timePositionNaut miles runAvg speedWind from/ knotsBaromVisibWave heightAir tempDewpointWater temp
2019-Jun-12 08:22N 57°16' W 005°39'1 2.0
2019-Jun-12 07:50N 57°17' W 005°39'0 0.0
2019-Jun-12 07:27N 57°17' W 005°39'0 0.0
2019-Jun-12 06:59N 57°17' W 005°39'0 0.0
2019-Jun-12 06:26N 57°17' W 005°39'0 0.0
2019-Jun-12 05:59N 57°17' W 005°39'0 0.0
2019-Jun-12 05:26N 57°17' W 005°39'0 0.0
2019-Jun-12 04:56N 57°17' W 005°39'0 0.0
2019-Jun-12 04:26N 57°17' W 005°39'0 0.0
2019-Jun-12 03:59N 57°17' W 005°39'0 0.0
2019-Jun-12 03:23N 57°17' W 005°39'0 0.0
2019-Jun-12 02:59N 57°17' W 005°39'0 0.0
2019-Jun-12 01:59N 57°17' W 005°39'0 0.0
2019-Jun-12 01:20N 57°17' W 005°39'0 0.0
2019-Jun-12 00:59N 57°17' W 005°39'0 0.0
2019-Jun-12 00:29N 57°17' W 005°39'0 0.0
2019-Jun-11 23:59N 57°17' W 005°39'0 0.0
2019-Jun-11 23:29N 57°17' W 005°39'0 0.0
2019-Jun-11 22:56N 57°17' W 005°39'0 0.0
2019-Jun-11 22:26N 57°17' W 005°39'0 0.1
2019-Jun-11 22:01N 57°17' W 005°39'3 5.4
2019-Jun-11 21:27N 57°17' W 005°45'4 6.2
2019-Jun-11 20:51N 57°20' W 005°43'2 5.6
2019-Jun-11 20:26N 57°21' W 005°38'0 0.0
2019-Jun-10 14:40N 57°21' W 005°38'1 4.2
2019-Jun-10 14:23N 57°21' W 005°41'3 6.9
2019-Jun-10 13:58N 57°20' W 005°46'4 7.3
2019-Jun-10 13:29N 57°20' W 005°52'  
2019-Jun-06 11:24N 57°21' W 005°53'3 6.0
2019-Jun-06 10:58N 57°19' W 005°50'2 4.9
2019-Jun-06 10:29N 57°19' W 005°46'3 3.8
2019-Jun-06 09:49N 57°21' W 005°43'1 4.2
2019-Jun-06 09:30N 57°21' W 005°41'1 0.0
2019-Jun-04 09:35N 57°21' W 005°38'3 5.8
2019-Jun-04 09:00N 57°20' W 005°45'3 5.9
2019-Jun-04 08:30N 57°19' W 005°50'2 0.1
2019-Jun-03 15:30N 57°20' W 005°54'2 4.5
2019-Jun-03 15:00N 57°19' W 005°50'3 6.0
2019-Jun-03 14:29N 57°17' W 005°46'2 0.7
2019-Jun-03 11:49N 57°16' W 005°42'2 7.6
2019-Jun-03 11:30N 57°17' W 005°46'4 8.3
2019-Jun-03 11:00N 57°20' W 005°52'2 3.3
2019-Jun-03 10:24N 57°22' W 005°53'2 6.0
2019-Jun-03 10:00N 57°19' W 005°52'3 6.2
2019-Jun-03 09:30N 57°16' W 005°53'2 3.3
2019-Jun-03 09:01N 57°15' W 005°54'0 0.0
2019-Jun-03 08:30N 57°15' W 005°54'0 0.0
2019-Jun-03 07:57N 57°15' W 005°54'0 0.0
2019-Jun-03 07:31N 57°15' W 005°54'0 0.0
2019-Jun-03 07:00N 57°15' W 005°54'0 0.0
2019-Jun-03 06:24N 57°15' W 005°54'0 0.0
2019-Jun-03 06:00N 57°15' W 005°54'0 0.0
2019-Jun-03 05:30N 57°15' W 005°54'0 0.0
2019-Jun-03 05:00N 57°15' W 005°54'0 0.0
2019-Jun-03 04:28N 57°15' W 005°54'0 0.0
2019-Jun-03 04:00N 57°15' W 005°54'0 0.0
2019-Jun-03 03:31N 57°15' W 005°54'0 0.0
2019-Jun-03 02:58N 57°15' W 005°54'0 0.0
2019-Jun-03 02:27N 57°15' W 005°54'0 0.0
2019-Jun-03 01:55N 57°15' W 005°54'0 0.0
2019-Jun-03 01:28N 57°15' W 005°54'0 0.0
2019-Jun-03 00:58N 57°15' W 005°54'0 0.0
2019-Jun-03 00:28N 57°15' W 005°54'0 0.0
2019-Jun-02 23:54N 57°15' W 005°54'0 0.0
2019-Jun-02 23:28N 57°15' W 005°54'0 0.0
2019-Jun-02 23:00N 57°15' W 005°54'0 0.0
2019-Jun-02 22:27N 57°15' W 005°54'0 0.0
2019-Jun-02 22:00N 57°15' W 005°54'0 0.0
2019-Jun-02 21:24N 57°15' W 005°54'0 0.0
2019-Jun-02 20:57N 57°15' W 005°54'0 0.0
2019-Jun-02 20:31N 57°15' W 005°54'0 0.0
2019-Jun-02 20:01N 57°15' W 005°54'0 0.0
2019-Jun-02 19:28N 57°15' W 005°54'0 0.0
2019-Jun-02 18:55N 57°15' W 005°54'0 0.2
2019-Jun-02 18:29N 57°15' W 005°54'2 3.1
2019-Jun-02 18:00N 57°16' W 005°53'1 2.7
2019-Jun-02 17:30N 57°17' W 005°52'3 5.3
2019-Jun-02 16:59N 57°19' W 005°48'4 7.5
2019-Jun-02 16:25N 57°21' W 005°41'  
Track history (hours):
 
Tides and Currents Weather Stations Pressure Air Temp Water Temp Dewpoint Dewpoint Depression Visibility Wind Speed Wind Dir Waves Ship Positions

Ocean Spirit of Moray (United Kingdom)

Ship's website: http://www.gordonstoun.org.uk/

Last reported at 2019-Jun-12 08:22 UTC. Time now 2019-Jun-16 00:45 UTC.
Position N 57°16' W 005°39'.

Length 24 m; draft 3 m.

Type: Sailing vessel. MMSI: 232007590.

Date/timePositionNaut miles runAvg speedWind from/ knotsBaromVisibWave heightAir tempDewpointWater temp
2019-Jun-12 08:22N 57°16' W 005°39'1 2.0
2019-Jun-12 07:50N 57°17' W 005°39'0 0.0
2019-Jun-12 07:27N 57°17' W 005°39'0 0.0
2019-Jun-12 06:59N 57°17' W 005°39'0 0.0
2019-Jun-12 06:26N 57°17' W 005°39'0 0.0
2019-Jun-12 05:59N 57°17' W 005°39'0 0.0
2019-Jun-12 05:26N 57°17' W 005°39'0 0.0
2019-Jun-12 04:56N 57°17' W 005°39'0 0.0
2019-Jun-12 04:26N 57°17' W 005°39'0 0.0
2019-Jun-12 03:59N 57°17' W 005°39'0 0.0
2019-Jun-12 03:23N 57°17' W 005°39'0 0.0
2019-Jun-12 02:59N 57°17' W 005°39'0 0.0
2019-Jun-12 01:59N 57°17' W 005°39'0 0.0
2019-Jun-12 01:20N 57°17' W 005°39'0 0.0
2019-Jun-12 00:59N 57°17' W 005°39'0 0.0
2019-Jun-12 00:29N 57°17' W 005°39'0 0.0
2019-Jun-11 23:59N 57°17' W 005°39'0 0.0
2019-Jun-11 23:29N 57°17' W 005°39'0 0.0
2019-Jun-11 22:56N 57°17' W 005°39'0 0.0
2019-Jun-11 22:26N 57°17' W 005°39'0 0.1
2019-Jun-11 22:01N 57°17' W 005°39'3 5.4
2019-Jun-11 21:27N 57°17' W 005°45'4 6.2
2019-Jun-11 20:51N 57°20' W 005°43'2 5.6
2019-Jun-11 20:26N 57°21' W 005°38'0 0.0
2019-Jun-10 14:40N 57°21' W 005°38'1 4.2
2019-Jun-10 14:23N 57°21' W 005°41'3 6.9
2019-Jun-10 13:58N 57°20' W 005°46'4 7.3
2019-Jun-10 13:29N 57°20' W 005°52'  
2019-Jun-06 11:24N 57°21' W 005°53'3 6.0
2019-Jun-06 10:58N 57°19' W 005°50'2 4.9
2019-Jun-06 10:29N 57°19' W 005°46'3 3.8
2019-Jun-06 09:49N 57°21' W 005°43'1 4.2
2019-Jun-06 09:30N 57°21' W 005°41'1 0.0
2019-Jun-04 09:35N 57°21' W 005°38'3 5.8
2019-Jun-04 09:00N 57°20' W 005°45'3 5.9
2019-Jun-04 08:30N 57°19' W 005°50'2 0.1
2019-Jun-03 15:30N 57°20' W 005°54'2 4.5
2019-Jun-03 15:00N 57°19' W 005°50'3 6.0
2019-Jun-03 14:29N 57°17' W 005°46'2 0.7
2019-Jun-03 11:49N 57°16' W 005°42'2 7.6
2019-Jun-03 11:30N 57°17' W 005°46'4 8.3
2019-Jun-03 11:00N 57°20' W 005°52'2 3.3
2019-Jun-03 10:24N 57°22' W 005°53'2 6.0
2019-Jun-03 10:00N 57°19' W 005°52'3 6.2
2019-Jun-03 09:30N 57°16' W 005°53'2 3.3
2019-Jun-03 09:01N 57°15' W 005°54'0 0.0
2019-Jun-03 08:30N 57°15' W 005°54'0 0.0
2019-Jun-03 07:57N 57°15' W 005°54'0 0.0
2019-Jun-03 07:31N 57°15' W 005°54'0 0.0
2019-Jun-03 07:00N 57°15' W 005°54'0 0.0
2019-Jun-03 06:24N 57°15' W 005°54'0 0.0
2019-Jun-03 06:00N 57°15' W 005°54'0 0.0
2019-Jun-03 05:30N 57°15' W 005°54'0 0.0
2019-Jun-03 05:00N 57°15' W 005°54'0 0.0
2019-Jun-03 04:28N 57°15' W 005°54'0 0.0
2019-Jun-03 04:00N 57°15' W 005°54'0 0.0
2019-Jun-03 03:31N 57°15' W 005°54'0 0.0
2019-Jun-03 02:58N 57°15' W 005°54'0 0.0
2019-Jun-03 02:27N 57°15' W 005°54'0 0.0
2019-Jun-03 01:55N 57°15' W 005°54'0 0.0
2019-Jun-03 01:28N 57°15' W 005°54'0 0.0
2019-Jun-03 00:58N 57°15' W 005°54'0 0.0
2019-Jun-03 00:28N 57°15' W 005°54'0 0.0
2019-Jun-02 23:54N 57°15' W 005°54'0 0.0
2019-Jun-02 23:28N 57°15' W 005°54'0 0.0
2019-Jun-02 23:00N 57°15' W 005°54'0 0.0
2019-Jun-02 22:27N 57°15' W 005°54'0 0.0
2019-Jun-02 22:00N 57°15' W 005°54'0 0.0
2019-Jun-02 21:24N 57°15' W 005°54'0 0.0
2019-Jun-02 20:57N 57°15' W 005°54'0 0.0
2019-Jun-02 20:31N 57°15' W 005°54'0 0.0
2019-Jun-02 20:01N 57°15' W 005°54'0 0.0
2019-Jun-02 19:28N 57°15' W 005°54'0 0.0
2019-Jun-02 18:55N 57°15' W 005°54'0 0.2
2019-Jun-02 18:29N 57°15' W 005°54'2 3.1
2019-Jun-02 18:00N 57°16' W 005°53'1 2.7
2019-Jun-02 17:30N 57°17' W 005°52'3 5.3
2019-Jun-02 16:59N 57°19' W 005°48'4 7.5
2019-Jun-02 16:25N 57°21' W 005°41'  

Dump ship's entire track history